RJSM(METAR)
08/23 01:00
METAR RJSM 221600Z 32007KT 9999 FEW030 23/22 Q1007 RMK 1CU030 A2975=
戻る
トップページへ戻る
IMOC Co,.Ltd.